createdAt,value
2017-09-21T00:00:26.610Z,2.83
2017-09-21T00:02:54.091Z,2.57
2017-09-21T00:05:22.348Z,2.70
2017-09-21T00:07:49.841Z,3.03
2017-09-21T00:10:17.347Z,3.30
2017-09-21T00:12:59.710Z,2.80
2017-09-21T00:15:27.186Z,2.20
2017-09-21T00:20:29.694Z,2.73
2017-09-21T00:22:57.179Z,2.60
2017-09-21T00:25:24.658Z,2.93
2017-09-21T00:27:52.902Z,2.83
2017-09-21T00:30:20.376Z,2.40
2017-09-21T00:32:47.855Z,2.60
2017-09-21T00:35:16.116Z,3.17
2017-09-21T00:37:43.598Z,2.90
2017-09-21T00:40:11.841Z,2.90
2017-09-21T00:42:39.321Z,2.40
2017-09-21T00:45:06.816Z,2.53
2017-09-21T00:47:34.303Z,3.47
2017-09-21T00:50:01.774Z,3.23
2017-09-21T00:52:29.262Z,2.30
2017-09-21T00:55:03.915Z,2.73
2017-09-21T00:57:31.399Z,3.40
2017-09-21T00:59:58.873Z,2.97
2017-09-21T01:02:26.352Z,3.10
2017-09-21T01:04:53.843Z,3.57
2017-09-21T01:07:22.086Z,2.33
2017-09-21T01:09:49.570Z,2.53
2017-09-21T01:12:21.420Z,3.00
2017-09-21T01:15:04.552Z,2.40
2017-09-21T01:17:32.794Z,2.23
2017-09-21T01:20:00.292Z,3.10
2017-09-21T01:22:28.533Z,2.53
2017-09-21T01:24:56.023Z,2.07
2017-09-21T01:27:24.274Z,2.10
2017-09-21T01:29:51.771Z,2.83
2017-09-21T01:32:20.086Z,2.37
2017-09-21T01:34:48.391Z,2.50
2017-09-21T01:37:15.862Z,2.60
2017-09-21T01:39:43.347Z,2.40
2017-09-21T01:42:10.825Z,3.07
2017-09-21T01:44:47.543Z,2.70
2017-09-21T01:47:15.033Z,2.53
2017-09-21T01:49:51.056Z,2.00
2017-09-21T01:52:18.542Z,2.60
2017-09-21T01:54:46.793Z,3.57
2017-09-21T01:57:14.330Z,2.67
2017-09-21T01:59:41.810Z,2.83
2017-09-21T02:02:09.290Z,2.73
2017-09-21T02:04:37.550Z,2.13
2017-09-21T02:07:05.025Z,2.47
2017-09-21T02:12:15.309Z,2.60
2017-09-21T02:14:43.592Z,2.83
2017-09-21T02:17:11.838Z,2.70
2017-09-21T02:19:39.317Z,2.90
2017-09-21T02:27:02.583Z,3.10
2017-09-21T02:29:30.062Z,3.40
2017-09-21T02:31:57.544Z,2.90
2017-09-21T02:34:25.782Z,2.60
2017-09-21T02:36:53.263Z,3.03
2017-09-21T02:39:26.706Z,2.90
2017-09-21T02:42:09.064Z,3.37
2017-09-21T02:44:36.552Z,2.57
2017-09-21T02:47:04.039Z,3.37
2017-09-21T02:49:31.523Z,3.33
2017-09-21T02:51:58.996Z,2.97
2017-09-21T02:54:26.476Z,3.13
2017-09-21T03:00:13.296Z,2.83
2017-09-21T03:02:40.772Z,2.40
2017-09-21T03:05:19.727Z,2.40
2017-09-21T03:07:47.211Z,2.63
2017-09-21T03:10:14.691Z,2.83
2017-09-21T03:12:42.178Z,2.67
2017-09-21T03:15:10.443Z,2.50
2017-09-21T03:17:38.696Z,2.50
2017-09-21T03:20:06.178Z,2.53
2017-09-21T03:22:34.427Z,2.87
2017-09-21T03:25:01.914Z,2.50
2017-09-21T03:39:02.085Z,2.50
2017-09-21T03:41:29.558Z,2.63
2017-09-21T03:43:57.039Z,2.40
2017-09-21T03:46:37.979Z,2.77
2017-09-21T03:49:05.465Z,2.50
2017-09-21T03:51:33.714Z,2.43
2017-09-21T03:54:01.190Z,2.70
2017-09-21T03:56:28.674Z,3.33
2017-09-21T03:58:56.919Z,3.03
2017-09-21T04:01:24.401Z,2.70
2017-09-21T04:03:52.642Z,2.50
2017-09-21T04:06:20.136Z,2.87
2017-09-21T04:08:48.384Z,2.27
2017-09-21T04:11:15.867Z,1.93
2017-09-21T04:13:44.121Z,3.00
2017-09-21T04:23:33.107Z,3.00
2017-09-21T04:29:06.006Z,2.67
2017-09-21T04:31:33.500Z,2.70
2017-09-21T04:34:00.981Z,2.60
2017-09-21T04:36:28.472Z,2.47
2017-09-21T04:39:00.637Z,2.10
2017-09-21T04:41:28.120Z,2.50
2017-09-21T04:43:55.603Z,2.23
2017-09-21T04:46:23.084Z,2.20
2017-09-21T04:53:18.906Z,2.37
2017-09-21T04:55:46.389Z,2.60
2017-09-21T04:58:13.892Z,3.00
2017-09-21T05:00:41.371Z,3.13
2017-09-21T05:03:08.851Z,2.77
2017-09-21T05:05:40.198Z,2.47
2017-09-21T05:08:10.734Z,2.47
2017-09-21T05:10:38.208Z,2.60
2017-09-21T05:13:05.686Z,2.00
2017-09-21T05:15:33.936Z,3.57
2017-09-21T05:18:01.419Z,3.23
2017-09-21T05:20:29.658Z,2.90
2017-09-21T05:22:58.064Z,4.03
2017-09-21T05:25:26.310Z,4.30
2017-09-21T05:28:48.583Z,2.93
2017-09-21T05:31:27.669Z,3.20
2017-09-21T05:33:55.146Z,3.40
2017-09-21T05:36:22.624Z,3.30
2017-09-21T05:38:50.110Z,2.73
2017-09-21T05:41:29.926Z,2.60
2017-09-21T05:43:58.914Z,3.07
2017-09-21T05:46:26.434Z,2.80
2017-09-21T05:48:53.923Z,3.17
2017-09-21T05:51:22.804Z,2.50
2017-09-21T05:53:50.282Z,2.80
2017-09-21T05:56:17.769Z,4.20
2017-09-21T05:58:46.022Z,2.47
2017-09-21T06:01:13.503Z,2.33
2017-09-21T06:03:41.761Z,3.50
2017-09-21T06:06:09.244Z,3.60
2017-09-21T06:08:37.495Z,2.20
2017-09-21T06:11:04.974Z,2.83
2017-09-21T06:13:33.224Z,2.97
2017-09-21T06:16:03.327Z,3.07
2017-09-21T06:18:31.270Z,2.87
2017-09-21T06:20:58.758Z,2.97
2017-09-21T06:23:26.243Z,2.67
2017-09-21T06:25:53.722Z,2.70
2017-09-21T06:28:23.994Z,2.90
2017-09-21T06:30:51.470Z,3.10
2017-09-21T06:33:18.950Z,3.00
2017-09-21T06:35:46.427Z,2.80
2017-09-21T06:38:14.673Z,2.70
2017-09-21T06:40:42.155Z,3.00
2017-09-21T06:43:10.407Z,2.50
2017-09-21T06:45:37.898Z,2.87
2017-09-21T06:48:06.877Z,2.70
2017-09-21T06:50:35.117Z,3.00
2017-09-21T06:53:02.604Z,2.60
2017-09-21T06:55:30.079Z,2.70
2017-09-21T06:57:58.327Z,3.33
2017-09-21T07:00:25.807Z,4.27
2017-09-21T07:02:54.067Z,2.87
2017-09-21T07:05:21.550Z,2.40
2017-09-21T07:07:49.794Z,2.57
2017-09-21T07:10:17.271Z,2.50
2017-09-21T07:12:44.763Z,3.60
2017-09-21T07:15:12.242Z,3.00
2017-09-21T07:17:39.727Z,2.47
2017-09-21T07:20:09.275Z,2.60
2017-09-21T07:22:37.552Z,3.80
2017-09-21T07:25:05.047Z,2.53
2017-09-21T07:27:36.031Z,2.20
2017-09-21T07:30:03.506Z,2.67
2017-09-21T07:32:31.752Z,2.20
2017-09-21T07:34:59.231Z,1.90
2017-09-21T07:37:27.435Z,2.93
2017-09-21T07:39:54.918Z,1.80
2017-09-21T07:42:22.408Z,2.07
2017-09-21T07:45:01.741Z,1.73
2017-09-21T07:47:37.952Z,2.60
2017-09-21T07:50:05.423Z,2.00
2017-09-21T07:52:32.911Z,2.80
2017-09-21T07:55:00.392Z,2.80
2017-09-21T07:57:31.407Z,2.97
2017-09-21T07:59:58.896Z,5.07
2017-09-21T08:02:26.386Z,4.00
2017-09-21T08:04:53.862Z,6.60
2017-09-21T08:07:21.346Z,5.10
2017-09-21T08:09:48.829Z,6.20
2017-09-21T08:12:16.321Z,6.30
2017-09-21T08:14:43.814Z,6.53
2017-09-21T08:17:11.306Z,7.77
2017-09-21T08:19:38.787Z,7.30
2017-09-21T08:22:07.048Z,9.13
2017-09-21T08:24:35.302Z,8.00
2017-09-21T08:27:02.783Z,7.23
2017-09-21T08:29:30.263Z,8.63
2017-09-21T08:31:58.510Z,7.60
2017-09-21T08:34:25.988Z,7.50
2017-09-21T08:36:54.230Z,7.17
2017-09-21T08:39:21.713Z,8.50
2017-09-21T08:41:49.195Z,8.13
2017-09-21T08:44:17.438Z,8.10
2017-09-21T08:46:44.917Z,7.03
2017-09-21T08:49:13.161Z,10.30
2017-09-21T08:51:40.634Z,10.17
2017-09-21T08:54:08.124Z,9.63
2017-09-21T08:56:39.198Z,9.80
2017-09-21T08:59:06.678Z,9.63
2017-09-21T09:01:34.154Z,7.97
2017-09-21T09:04:01.625Z,8.90
2017-09-21T09:06:29.882Z,10.90
2017-09-21T09:08:57.376Z,10.80
2017-09-21T09:11:25.628Z,9.67
2017-09-21T09:13:53.125Z,10.80
2017-09-21T09:16:20.609Z,10.43
2017-09-21T09:18:48.089Z,9.77
2017-09-21T09:23:49.385Z,10.93
2017-09-21T09:26:17.635Z,9.20
2017-09-21T09:28:45.114Z,8.80
2017-09-21T09:31:12.599Z,11.13
2017-09-21T09:33:40.078Z,9.87
2017-09-21T09:36:07.558Z,8.40
2017-09-21T09:38:35.039Z,9.77
2017-09-21T09:41:03.710Z,10.20
2017-09-21T09:43:31.196Z,15.93
2017-09-21T09:45:59.446Z,10.13
2017-09-21T09:51:00.227Z,20.40
2017-09-21T09:53:28.483Z,8.87
2017-09-21T09:55:55.968Z,10.13
2017-09-21T09:58:24.232Z,9.70
2017-09-21T10:00:51.709Z,11.83
2017-09-21T10:03:19.958Z,10.97
2017-09-21T10:05:47.455Z,7.83
2017-09-21T10:08:15.741Z,12.03
2017-09-21T10:10:43.225Z,12.60
2017-09-21T10:13:10.750Z,12.43
2017-09-21T10:15:38.999Z,9.43
2017-09-21T10:18:06.477Z,9.70
2017-09-21T10:20:34.734Z,9.13
2017-09-21T10:23:02.228Z,11.57
2017-09-21T10:25:46.755Z,9.30
2017-09-21T10:28:14.241Z,10.30
2017-09-21T10:30:46.740Z,11.60
2017-09-21T10:33:14.228Z,10.97
2017-09-21T10:35:42.677Z,11.83
2017-09-21T10:38:10.150Z,5.90
2017-09-21T10:40:37.639Z,11.93
2017-09-21T10:43:05.158Z,10.07
2017-09-21T10:45:32.645Z,10.97
2017-09-21T10:48:00.135Z,12.47
2017-09-21T10:50:31.237Z,9.70
2017-09-21T10:52:58.723Z,12.57
2017-09-21T10:55:26.215Z,10.40
2017-09-21T10:57:53.703Z,7.40
2017-09-21T11:00:21.178Z,9.60
2017-09-21T11:02:48.662Z,8.67
2017-09-21T11:05:16.147Z,13.63
2017-09-21T11:07:44.385Z,13.57
2017-09-21T11:10:11.866Z,8.50
2017-09-21T11:12:40.120Z,11.37
2017-09-21T11:15:07.614Z,11.40
2017-09-21T11:17:35.861Z,11.63
2017-09-21T11:20:03.396Z,11.80
2017-09-21T11:22:31.618Z,12.23
2017-09-21T11:24:59.869Z,12.20
2017-09-21T11:27:27.390Z,12.23
2017-09-21T11:29:55.636Z,10.80
2017-09-21T11:32:23.946Z,14.43
2017-09-21T11:34:51.446Z,17.90
2017-09-21T11:37:18.936Z,11.50
2017-09-21T11:39:47.224Z,12.17
2017-09-21T11:42:14.719Z,27.20
2017-09-21T11:44:42.200Z,25.63
2017-09-21T11:47:09.709Z,11.50
2017-09-21T11:49:37.227Z,17.50
2017-09-21T11:52:04.771Z,13.27
2017-09-21T11:54:35.090Z,13.23
2017-09-21T11:57:02.695Z,13.00
2017-09-21T11:59:30.960Z,10.27
2017-09-21T12:01:59.212Z,9.50
2017-09-21T12:04:26.705Z,8.67
2017-09-21T12:06:54.983Z,228.57
2017-09-21T12:09:23.244Z,999.90
2017-09-21T12:11:52.251Z,487.30
2017-09-21T12:14:20.507Z,25.43
2017-09-21T12:16:47.995Z,28.80
2017-09-21T12:19:16.251Z,16.00
2017-09-21T12:21:44.520Z,43.00
2017-09-21T12:24:13.511Z,14.33
2017-09-21T12:26:41.003Z,13.17
2017-09-21T12:29:09.256Z,13.93
2017-09-21T12:31:38.251Z,8.30
2017-09-21T12:34:06.501Z,11.67
2017-09-21T12:36:33.986Z,9.80
2017-09-21T12:39:02.264Z,10.90
2017-09-21T12:41:29.781Z,229.63
2017-09-21T12:43:58.066Z,56.40
2017-09-21T12:46:25.563Z,106.83
2017-09-21T12:48:53.072Z,129.17
2017-09-21T12:51:20.571Z,155.47
2017-09-21T12:53:48.055Z,79.30
2017-09-21T12:56:16.313Z,17.40
2017-09-21T12:58:45.305Z,67.83
2017-09-21T13:01:12.781Z,58.77
2017-09-21T13:03:43.788Z,57.83
2017-09-21T13:06:11.270Z,82.10
2017-09-21T13:08:39.528Z,15.73
2017-09-21T13:11:07.028Z,118.27
2017-09-21T13:13:35.283Z,47.10
2017-09-21T13:16:03.541Z,152.27
2017-09-21T13:18:31.059Z,106.17
2017-09-21T13:20:58.547Z,98.30
2017-09-21T13:23:26.043Z,25.83
2017-09-21T13:25:55.045Z,68.10
2017-09-21T13:28:23.304Z,61.03
2017-09-21T13:30:50.796Z,55.87
2017-09-21T13:33:18.286Z,32.23
2017-09-21T13:35:45.771Z,48.07
2017-09-21T13:38:13.257Z,192.87
2017-09-21T13:40:41.518Z,233.77
2017-09-21T13:43:09.783Z,246.10
2017-09-21T13:45:37.283Z,210.07
2017-09-21T13:48:19.503Z,122.93
2017-09-21T13:50:47.774Z,85.07
2017-09-21T13:53:15.266Z,107.43
2017-09-21T13:55:42.775Z,95.37
2017-09-21T13:58:11.034Z,72.30
2017-09-21T14:00:39.292Z,54.67
2017-09-21T14:03:06.786Z,31.90
2017-09-21T14:05:35.051Z,135.83
2017-09-21T14:08:09.299Z,171.17
2017-09-21T14:10:36.786Z,222.23
2017-09-21T14:13:04.292Z,154.73
2017-09-21T14:15:32.545Z,117.33
2017-09-21T14:18:00.031Z,64.03
2017-09-21T14:20:31.805Z,129.87
2017-09-21T14:23:00.075Z,115.70
2017-09-21T14:25:32.094Z,62.43
2017-09-21T14:27:59.582Z,79.27
2017-09-21T14:30:28.582Z,59.77
2017-09-21T14:32:56.838Z,42.90
2017-09-21T14:35:24.335Z,26.87
2017-09-21T14:37:52.578Z,46.43
2017-09-21T14:40:20.067Z,151.20
2017-09-21T14:42:48.321Z,359.07
2017-09-21T14:45:18.626Z,229.23
2017-09-21T14:47:46.119Z,198.13
2017-09-21T15:01:01.796Z,60.37
2017-09-21T15:03:30.056Z,46.83
2017-09-21T15:05:58.310Z,56.20
2017-09-21T15:08:25.789Z,20.27
2017-09-21T15:10:54.033Z,14.63
2017-09-21T15:13:21.511Z,49.33
2017-09-21T15:15:48.994Z,21.37
2017-09-21T15:18:17.251Z,47.40
2017-09-21T15:20:45.518Z,31.03
2017-09-21T15:23:12.993Z,17.90
2017-09-21T15:25:41.243Z,38.70
2017-09-21T15:28:08.743Z,20.53
2017-09-21T15:30:37.005Z,33.80
2017-09-21T15:33:05.263Z,13.33
2017-09-21T15:35:32.753Z,29.43
2017-09-21T15:38:01.008Z,21.30
2017-09-21T15:52:01.301Z,25.63
2017-09-21T15:54:28.788Z,46.37
2017-09-21T15:56:57.038Z,63.57
2017-09-21T15:59:24.522Z,80.23
2017-09-21T16:01:53.519Z,52.63
2017-09-21T16:04:21.784Z,92.87
2017-09-21T16:06:50.787Z,80.63
2017-09-21T16:09:19.051Z,17.47
2017-09-21T16:11:46.534Z,13.00
2017-09-21T16:14:14.783Z,60.37
2017-09-21T16:16:45.404Z,32.97
2017-09-21T16:19:12.894Z,34.27
2017-09-21T16:21:41.158Z,53.60
2017-09-21T16:24:09.418Z,378.63
2017-09-21T16:26:43.758Z,635.00
2017-09-21T16:29:27.636Z,266.13
2017-09-21T16:31:55.123Z,297.87
2017-09-21T16:34:22.624Z,484.77
2017-09-21T16:36:50.891Z,462.07
2017-09-21T16:39:18.391Z,319.13
2017-09-21T16:41:45.877Z,381.17
2017-09-21T16:44:13.367Z,345.27
2017-09-21T16:46:40.853Z,630.17
2017-09-21T16:49:23.091Z,683.50
2017-09-21T16:51:50.595Z,427.33
2017-09-21T16:54:18.099Z,517.93
2017-09-21T16:56:45.588Z,441.23
2017-09-21T16:59:13.078Z,69.63
2017-09-21T17:01:41.338Z,192.37
2017-09-21T17:04:08.830Z,105.57
2017-09-21T17:06:37.089Z,48.70
2017-09-21T17:09:04.587Z,13.40
2017-09-21T17:11:32.084Z,19.80
2017-09-21T17:13:59.586Z,6.90
2017-09-21T17:16:27.854Z,181.13
2017-09-21T17:18:56.124Z,191.63
2017-09-21T17:21:23.631Z,73.83
2017-09-21T17:23:51.116Z,40.47
2017-09-21T17:26:18.647Z,115.67
2017-09-21T17:28:46.167Z,218.67
2017-09-21T17:31:14.430Z,416.57
2017-09-21T17:33:41.954Z,664.17
2017-09-21T17:36:09.465Z,334.30
2017-09-21T17:38:38.192Z,530.03
2017-09-21T17:41:05.686Z,241.60
2017-09-21T17:43:33.188Z,61.13
2017-09-21T17:48:36.659Z,345.97
2017-09-21T17:51:04.146Z,29.07
2017-09-21T17:53:32.407Z,15.63
2017-09-21T17:55:59.923Z,57.87
2017-09-21T17:58:27.407Z,17.43
2017-09-21T18:00:54.905Z,10.30
2017-09-21T18:03:24.049Z,9.83
2017-09-21T18:05:51.530Z,18.17
2017-09-21T18:08:19.006Z,9.13
2017-09-21T18:10:56.415Z,8.27
2017-09-21T18:13:24.667Z,10.57
2017-09-21T18:15:52.163Z,9.97
2017-09-21T18:18:31.103Z,11.07
2017-09-21T18:20:58.598Z,8.63
2017-09-21T18:23:26.108Z,8.93
2017-09-21T18:25:54.364Z,17.40
2017-09-21T18:28:22.625Z,22.57
2017-09-21T18:30:50.114Z,18.50
2017-09-21T18:33:18.385Z,17.73
2017-09-21T18:35:46.662Z,18.40
2017-09-21T18:38:14.915Z,10.00
2017-09-21T18:40:42.385Z,7.50
2017-09-21T18:43:27.883Z,11.70
2017-09-21T18:45:58.658Z,8.67
2017-09-21T18:48:26.148Z,25.03
2017-09-21T18:50:53.646Z,11.53
2017-09-21T18:53:21.909Z,6.80
2017-09-21T18:55:50.172Z,26.07
2017-09-21T18:58:17.666Z,13.23
2017-09-21T19:00:45.176Z,10.43
2017-09-21T19:03:12.662Z,6.33
2017-09-21T19:05:40.979Z,7.10
2017-09-21T19:08:08.466Z,9.53
2017-09-21T19:11:08.824Z,8.20
2017-09-21T19:13:36.312Z,5.70
2017-09-21T19:16:03.833Z,6.00
2017-09-21T19:18:32.093Z,4.10
2017-09-21T19:20:59.580Z,9.00
2017-09-21T19:23:27.830Z,4.50
2017-09-21T19:25:55.305Z,5.37
2017-09-21T19:28:22.790Z,4.77
2017-09-21T19:30:51.048Z,5.57
2017-09-21T19:33:18.535Z,7.80
2017-09-21T19:35:46.032Z,12.23
2017-09-21T19:38:13.527Z,8.90
2017-09-21T19:40:41.778Z,8.60
2017-09-21T19:43:09.274Z,20.60
2017-09-21T19:45:37.586Z,8.70
2017-09-21T19:48:05.062Z,4.17
2017-09-21T19:50:32.544Z,9.20
2017-09-21T19:53:00.947Z,27.17
2017-09-21T19:55:29.196Z,8.67
2017-09-21T19:57:56.679Z,6.83
2017-09-21T20:00:24.927Z,7.30
2017-09-21T20:02:52.406Z,9.13
2017-09-21T20:05:19.879Z,4.70
2017-09-21T20:07:48.122Z,4.23
2017-09-21T20:10:15.612Z,20.00
2017-09-21T20:12:43.854Z,4.50
2017-09-21T20:15:11.332Z,25.53
2017-09-21T20:29:10.749Z,12.93
2017-09-21T20:31:39.007Z,20.13
2017-09-21T20:34:07.263Z,6.73
2017-09-21T20:36:34.763Z,14.03
2017-09-21T20:39:03.046Z,6.07
2017-09-21T20:41:30.527Z,5.23
2017-09-21T20:43:58.013Z,3.90
2017-09-21T20:46:25.494Z,29.67
2017-09-21T20:48:52.994Z,8.60
2017-09-21T20:51:35.351Z,4.50
2017-09-21T20:54:02.826Z,5.17
2017-09-21T20:59:27.708Z,7.13
2017-09-21T21:01:55.190Z,4.47
2017-09-21T21:04:22.673Z,9.60
2017-09-21T21:07:05.807Z,5.13
2017-09-21T21:09:33.277Z,4.90
2017-09-21T21:12:00.761Z,4.80
2017-09-21T21:14:29.226Z,3.20
2017-09-21T21:16:56.706Z,4.67
2017-09-21T21:19:24.194Z,4.53
2017-09-21T21:21:56.497Z,8.17
2017-09-21T21:24:23.982Z,12.60
2017-09-21T21:26:51.480Z,578.77
2017-09-21T21:29:19.726Z,18.87
2017-09-21T21:31:47.214Z,114.67
2017-09-21T21:34:14.709Z,6.80
2017-09-21T21:36:42.189Z,13.20
2017-09-21T21:39:09.679Z,4.93
2017-09-21T21:41:37.161Z,16.17
2017-09-21T21:44:05.419Z,10.00
2017-09-21T21:46:32.937Z,178.77
2017-09-21T21:49:00.432Z,27.50
2017-09-21T21:51:27.958Z,7.40
2017-09-21T21:53:55.449Z,173.90
2017-09-21T21:56:22.938Z,13.30
2017-09-21T21:58:56.281Z,6.30
2017-09-21T22:01:23.758Z,4.37
2017-09-21T22:03:51.256Z,6.70
2017-09-21T22:06:19.498Z,7.20
2017-09-21T22:08:46.987Z,21.97
2017-09-21T22:11:15.242Z,13.13
2017-09-21T22:13:42.730Z,8.60
2017-09-21T22:16:10.972Z,6.33
2017-09-21T22:18:38.483Z,15.10
2017-09-21T22:21:05.969Z,59.50
2017-09-21T22:23:33.512Z,8.77
2017-09-21T22:26:00.994Z,6.10
2017-09-21T22:28:28.492Z,53.60
2017-09-21T22:30:55.971Z,4.20
2017-09-21T22:33:24.222Z,3.10
2017-09-21T22:35:51.701Z,32.87
2017-09-21T22:38:24.955Z,57.57
2017-09-21T22:40:52.429Z,5.90
2017-09-21T22:43:34.873Z,4.60
2017-09-21T22:46:03.118Z,6.27
2017-09-21T22:48:32.096Z,4.03
2017-09-21T22:51:01.664Z,3.13
2017-09-21T22:53:31.986Z,3.80
2017-09-21T22:56:01.086Z,3.80
2017-09-21T22:58:28.569Z,6.00
2017-09-21T23:00:56.246Z,6.70
2017-09-21T23:03:23.731Z,10.67
2017-09-21T23:05:51.215Z,4.30
2017-09-21T23:08:19.450Z,5.17
2017-09-21T23:10:46.932Z,3.17
2017-09-21T23:13:15.175Z,5.10
2017-09-21T23:15:44.489Z,3.90
2017-09-21T23:18:11.966Z,4.00
2017-09-21T23:23:20.046Z,4.00
2017-09-21T23:25:47.542Z,3.70
2017-09-21T23:28:15.080Z,3.40
2017-09-21T23:30:42.558Z,3.47
2017-09-21T23:33:10.039Z,3.50
2017-09-21T23:35:38.278Z,3.90
2017-09-21T23:38:06.862Z,3.83
2017-09-21T23:40:40.467Z,5.13
2017-09-21T23:43:09.828Z,3.90
2017-09-21T23:45:46.646Z,3.53
2017-09-21T23:48:15.095Z,2.70
2017-09-21T23:50:46.826Z,3.20
2017-09-21T23:53:16.984Z,2.67
2017-09-21T23:55:46.487Z,3.50
2017-09-21T23:58:16.197Z,3.10
